createdAt,value
2022-08-29T00:02:07.567Z,19.30
2022-08-29T00:04:36.655Z,19.50
2022-08-29T00:07:06.231Z,19.50
2022-08-29T00:09:34.232Z,19.50
2022-08-29T00:12:02.515Z,19.60
2022-08-29T00:14:30.550Z,19.60
2022-08-29T00:16:58.789Z,19.70
2022-08-29T00:19:26.836Z,19.70
2022-08-29T00:21:54.922Z,19.90
2022-08-29T00:24:24.254Z,19.90
2022-08-29T00:26:52.396Z,19.90
2022-08-29T00:29:20.418Z,19.90
2022-08-29T00:31:48.571Z,19.90
2022-08-29T00:34:16.688Z,19.90
2022-08-29T00:36:49.105Z,20.00
2022-08-29T00:39:17.600Z,20.10
2022-08-29T00:41:52.712Z,20.00
2022-08-29T00:44:20.901Z,20.00
2022-08-29T00:46:52.660Z,20.00
2022-08-29T00:49:30.226Z,20.10
2022-08-29T00:52:01.213Z,20.10
2022-08-29T00:54:29.484Z,20.20
2022-08-29T00:57:00.099Z,20.20
2022-08-29T00:59:33.962Z,20.10
2022-08-29T01:02:03.961Z,20.10
2022-08-29T01:04:32.934Z,19.90
2022-08-29T01:07:01.533Z,20.00
2022-08-29T01:09:31.024Z,19.90
2022-08-29T01:12:18.091Z,19.90
2022-08-29T01:14:51.126Z,19.80
2022-08-29T01:17:23.497Z,19.80
2022-08-29T01:19:57.167Z,19.70
2022-08-29T01:22:40.580Z,19.70
2022-08-29T01:25:12.623Z,19.70
2022-08-29T01:27:44.391Z,19.70
2022-08-29T01:30:15.223Z,19.60
2022-08-29T01:32:43.531Z,19.60
2022-08-29T01:35:11.904Z,19.50
2022-08-29T01:37:43.203Z,19.50
2022-08-29T01:40:14.376Z,19.40
2022-08-29T01:42:42.573Z,19.40
2022-08-29T01:45:11.591Z,19.30
2022-08-29T01:47:40.264Z,19.30
2022-08-29T01:50:16.545Z,19.30
2022-08-29T01:52:44.956Z,19.30
2022-08-29T01:55:14.475Z,19.40
2022-08-29T01:57:42.853Z,19.40
2022-08-29T02:00:12.890Z,19.50
2022-08-29T02:02:43.070Z,19.60
2022-08-29T02:05:24.277Z,19.80
2022-08-29T02:07:52.561Z,19.70
2022-08-29T02:10:22.071Z,19.80
2022-08-29T02:12:50.361Z,19.80
2022-08-29T02:15:19.096Z,19.80
2022-08-29T02:17:48.483Z,19.80
2022-08-29T02:20:17.176Z,19.80
2022-08-29T02:23:02.481Z,19.90
2022-08-29T02:25:46.595Z,19.90
2022-08-29T02:28:18.201Z,19.90
2022-08-29T02:30:49.906Z,19.90
2022-08-29T02:33:21.897Z,20.00
2022-08-29T02:35:50.943Z,19.90
2022-08-29T02:38:19.206Z,19.90
2022-08-29T02:40:56.461Z,20.00
2022-08-29T02:43:26.152Z,19.90
2022-08-29T02:45:54.376Z,20.00
2022-08-29T02:48:22.506Z,20.00
2022-08-29T02:50:52.291Z,20.00
2022-08-29T02:53:24.525Z,20.10
2022-08-29T02:55:54.221Z,20.00
2022-08-29T02:58:24.751Z,20.20
2022-08-29T03:01:27.975Z,20.10
2022-08-29T03:03:56.220Z,20.20
2022-08-29T03:06:24.677Z,20.20
2022-08-29T03:08:54.189Z,20.20
2022-08-29T03:11:24.096Z,20.00
2022-08-29T03:13:52.399Z,20.10
2022-08-29T03:16:26.296Z,20.20
2022-08-29T03:19:14.043Z,20.20
2022-08-29T03:22:00.768Z,20.20
2022-08-29T03:24:31.736Z,20.20
2022-08-29T03:27:01.760Z,20.20
2022-08-29T03:29:30.022Z,20.20
2022-08-29T03:31:58.787Z,20.10
2022-08-29T03:34:27.397Z,20.20
2022-08-29T03:36:55.693Z,20.30
2022-08-29T03:39:44.488Z,20.30
2022-08-29T03:42:14.354Z,20.30
2022-08-29T03:44:43.542Z,20.40
2022-08-29T03:47:13.362Z,20.40
2022-08-29T03:49:41.834Z,20.40
2022-08-29T03:52:10.134Z,20.50
2022-08-29T03:54:38.237Z,20.50
2022-08-29T03:57:06.687Z,20.50
2022-08-29T03:59:36.079Z,20.50
2022-08-29T04:02:04.704Z,20.50
2022-08-29T04:04:50.106Z,20.40
2022-08-29T04:07:18.209Z,20.40
2022-08-29T04:09:46.309Z,20.50
2022-08-29T04:12:14.905Z,20.30
2022-08-29T04:14:44.288Z,20.30
2022-08-29T04:17:12.537Z,20.70
2022-08-29T04:19:40.655Z,20.60
2022-08-29T04:22:09.579Z,20.70
2022-08-29T04:24:37.568Z,20.60
2022-08-29T04:27:06.027Z,20.50
2022-08-29T04:29:35.447Z,20.80
2022-08-29T04:32:05.521Z,20.70
2022-08-29T04:34:33.590Z,20.80
2022-08-29T04:37:01.671Z,20.60
2022-08-29T04:39:29.757Z,20.10
2022-08-29T04:41:57.892Z,20.90
2022-08-29T04:44:25.929Z,21.00
2022-08-29T04:46:54.054Z,21.00
2022-08-29T04:49:23.563Z,21.10
2022-08-29T04:51:53.828Z,21.10
2022-08-29T04:54:21.905Z,21.00
2022-08-29T04:56:50.161Z,20.90
2022-08-29T04:59:19.560Z,21.00
2022-08-29T05:01:48.865Z,20.90
2022-08-29T05:04:17.059Z,21.00
2022-08-29T05:06:46.583Z,20.80
2022-08-29T05:09:15.202Z,20.90
2022-08-29T05:11:43.809Z,20.90
2022-08-29T05:14:12.118Z,20.70
2022-08-29T05:16:40.862Z,20.70
2022-08-29T05:19:09.990Z,20.30
2022-08-29T05:21:40.012Z,20.30
2022-08-29T05:24:11.713Z,20.30
2022-08-29T05:26:41.868Z,20.20
2022-08-29T05:29:11.516Z,20.10
2022-08-29T05:31:41.246Z,20.10
2022-08-29T05:34:32.471Z,20.00
2022-08-29T05:36:58.795Z,20.10
2022-08-29T05:39:28.206Z,20.00
2022-08-29T05:41:56.407Z,20.10
2022-08-29T05:44:24.767Z,20.20
2022-08-29T05:46:52.919Z,20.10
2022-08-29T05:49:21.318Z,19.90
2022-08-29T05:51:49.468Z,19.70
2022-08-29T05:54:17.529Z,19.70
2022-08-29T05:56:47.237Z,19.80
2022-08-29T05:59:16.995Z,19.70
2022-08-29T06:02:27.439Z,19.60
2022-08-29T06:04:55.710Z,19.40
2022-08-29T06:07:23.799Z,19.40
2022-08-29T06:09:53.006Z,19.50
2022-08-29T06:12:24.359Z,19.60
2022-08-29T06:14:52.716Z,19.40
2022-08-29T06:17:21.019Z,19.50
2022-08-29T06:19:51.676Z,19.60
2022-08-29T06:22:19.891Z,19.50
2022-08-29T06:24:48.050Z,19.80
2022-08-29T06:27:16.907Z,19.50
2022-08-29T06:29:46.317Z,19.40
2022-08-29T06:32:14.640Z,19.80
2022-08-29T06:34:42.833Z,20.10
2022-08-29T06:37:11.020Z,20.50
2022-08-29T06:39:39.218Z,20.60
2022-08-29T06:42:07.662Z,20.30
2022-08-29T06:44:35.976Z,20.40
2022-08-29T06:47:05.540Z,20.60
2022-08-29T06:49:34.423Z,20.60
2022-08-29T06:52:02.550Z,21.40
2022-08-29T06:54:30.666Z,21.20
2022-08-29T06:56:59.937Z,21.00
2022-08-29T06:59:28.407Z,21.30
2022-08-29T07:01:56.711Z,22.00
2022-08-29T07:04:26.634Z,21.90
2022-08-29T07:06:55.074Z,22.20
2022-08-29T07:09:23.393Z,22.00
2022-08-29T07:11:51.494Z,21.80
2022-08-29T07:14:19.603Z,21.90
2022-08-29T07:16:47.579Z,21.10
2022-08-29T07:19:15.791Z,21.00
2022-08-29T07:21:45.159Z,21.20
2022-08-29T07:24:13.529Z,21.00
2022-08-29T07:26:44.342Z,21.10
2022-08-29T07:29:15.561Z,21.40
2022-08-29T07:31:43.840Z,21.60
2022-08-29T07:34:12.786Z,21.90
2022-08-29T07:36:41.664Z,21.60
2022-08-29T07:39:14.656Z,22.00
2022-08-29T07:41:44.713Z,22.10
2022-08-29T07:44:14.170Z,22.00
2022-08-29T07:46:42.654Z,21.10
2022-08-29T07:49:11.921Z,21.00
2022-08-29T07:51:42.993Z,20.60
2022-08-29T07:54:16.826Z,20.90
2022-08-29T07:56:46.496Z,21.00
2022-08-29T07:59:14.990Z,21.40
2022-08-29T08:01:43.407Z,21.80
2022-08-29T08:04:12.474Z,21.70
2022-08-29T08:06:42.794Z,21.60
2022-08-29T08:09:11.533Z,21.30
2022-08-29T08:11:42.246Z,21.70
2022-08-29T08:14:10.798Z,21.80
2022-08-29T08:16:39.157Z,21.80
2022-08-29T08:19:13.350Z,21.80
2022-08-29T08:21:43.691Z,22.00
2022-08-29T08:24:19.782Z,21.50
2022-08-29T08:26:50.368Z,21.50
2022-08-29T08:29:18.602Z,21.40
2022-08-29T08:31:48.891Z,21.50
2022-08-29T08:34:17.470Z,21.10
2022-08-29T08:36:46.407Z,20.70
2022-08-29T08:39:15.189Z,20.80
2022-08-29T08:41:53.033Z,20.70
2022-08-29T08:44:56.556Z,21.80
2022-08-29T08:47:28.928Z,22.20
2022-08-29T08:50:02.328Z,21.80
2022-08-29T08:52:40.212Z,21.70
2022-08-29T08:55:18.112Z,21.40
2022-08-29T08:57:56.327Z,22.00
2022-08-29T09:00:24.497Z,21.60
2022-08-29T09:03:03.084Z,21.60
2022-08-29T09:05:40.694Z,21.90
2022-08-29T09:08:22.047Z,21.40
2022-08-29T09:10:59.277Z,22.00
2022-08-29T09:13:38.618Z,21.70
2022-08-29T09:16:10.793Z,22.90
2022-08-29T09:18:40.714Z,23.10
2022-08-29T09:21:39.397Z,22.60
2022-08-29T09:24:06.717Z,21.60
2022-08-29T09:26:35.544Z,21.40
2022-08-29T09:29:05.122Z,21.60
2022-08-29T09:31:34.941Z,22.10
2022-08-29T09:34:05.663Z,22.80
2022-08-29T09:36:37.627Z,23.00
2022-08-29T09:39:21.514Z,22.10
2022-08-29T09:41:51.713Z,21.80
2022-08-29T09:44:27.880Z,22.00
2022-08-29T09:47:07.769Z,22.20
2022-08-29T09:49:38.541Z,22.40
2022-08-29T09:52:12.552Z,22.80
2022-08-29T09:54:41.415Z,23.10
2022-08-29T09:57:21.305Z,23.70
2022-08-29T10:00:10.266Z,22.90
2022-08-29T10:02:46.218Z,22.00
2022-08-29T10:05:31.045Z,22.40
2022-08-29T10:07:59.192Z,22.60
2022-08-29T10:10:30.155Z,22.00
2022-08-29T10:13:03.712Z,21.80
2022-08-29T10:15:50.361Z,22.80
2022-08-29T10:18:38.180Z,22.40
2022-08-29T10:21:14.629Z,22.50
2022-08-29T10:23:54.842Z,23.30
2022-08-29T10:26:34.222Z,23.60
2022-08-29T10:29:12.469Z,24.10
2022-08-29T10:31:49.240Z,24.10
2022-08-29T10:34:34.525Z,23.50
2022-08-29T10:37:11.546Z,23.20
2022-08-29T10:39:47.540Z,22.40
2022-08-29T10:42:19.409Z,22.50
2022-08-29T10:44:58.603Z,22.70
2022-08-29T10:47:33.458Z,22.30
2022-08-29T10:50:42.584Z,23.60
2022-08-29T10:53:14.665Z,22.60
2022-08-29T10:55:53.124Z,22.50
2022-08-29T10:58:32.585Z,23.00
2022-08-29T11:01:09.509Z,22.90
2022-08-29T11:03:44.858Z,23.10
2022-08-29T11:06:22.318Z,22.50
2022-08-29T11:08:55.552Z,22.70
2022-08-29T11:11:26.547Z,22.50
2022-08-29T11:14:03.531Z,22.70
2022-08-29T11:16:37.938Z,23.00
2022-08-29T11:19:22.052Z,22.70
2022-08-29T11:21:56.837Z,22.70
2022-08-29T11:24:34.161Z,23.40
2022-08-29T11:27:11.369Z,23.50
2022-08-29T11:29:48.583Z,22.90
2022-08-29T11:32:28.139Z,23.20
2022-08-29T11:35:10.731Z,23.30
2022-08-29T11:38:03.763Z,23.90
2022-08-29T11:41:26.089Z,24.00
2022-08-29T11:43:40.897Z,23.90
2022-08-29T11:46:15.075Z,24.00
2022-08-29T11:48:45.382Z,24.40
2022-08-29T11:51:37.480Z,24.20
2022-08-29T11:54:48.566Z,23.70
2022-08-29T11:57:53.170Z,23.50
2022-08-29T12:00:46.920Z,23.40
2022-08-29T12:03:51.975Z,23.00
2022-08-29T12:06:53.907Z,22.50
2022-08-29T12:09:46.151Z,22.50
2022-08-29T12:12:39.515Z,22.70
2022-08-29T12:15:47.039Z,23.00
2022-08-29T12:18:46.305Z,23.40
2022-08-29T12:21:41.356Z,24.00
2022-08-29T12:24:30.001Z,24.10
2022-08-29T12:26:58.331Z,23.60
2022-08-29T12:29:31.069Z,23.40
2022-08-29T12:32:29.655Z,23.50
2022-08-29T12:35:29.222Z,23.50
2022-08-29T12:38:10.795Z,23.30
2022-08-29T12:40:58.053Z,22.80
2022-08-29T12:43:37.776Z,23.40
2022-08-29T12:46:15.280Z,23.90
2022-08-29T12:48:57.730Z,24.10
2022-08-29T12:51:35.740Z,23.40
2022-08-29T12:54:03.888Z,24.00
2022-08-29T12:56:34.237Z,24.10
2022-08-29T12:59:05.097Z,23.40
2022-08-29T13:01:38.016Z,23.50
2022-08-29T13:04:14.934Z,23.70
2022-08-29T13:06:55.158Z,23.40
2022-08-29T13:09:29.151Z,23.80
2022-08-29T13:12:15.463Z,24.20
2022-08-29T13:14:52.334Z,23.60
2022-08-29T13:17:24.441Z,23.10
2022-08-29T13:20:30.101Z,23.10
2022-08-29T13:23:21.997Z,23.10
2022-08-29T13:25:57.397Z,23.30
2022-08-29T13:28:35.877Z,23.70
2022-08-29T13:31:26.379Z,23.70
2022-08-29T13:34:19.417Z,23.60
2022-08-29T13:36:59.017Z,22.90
2022-08-29T13:39:36.960Z,23.40
2022-08-29T13:42:15.925Z,23.50
2022-08-29T13:45:17.742Z,23.10
2022-08-29T13:47:56.520Z,23.20
2022-08-29T13:50:28.487Z,23.50
2022-08-29T13:52:57.948Z,23.70
2022-08-29T13:55:26.515Z,23.70
2022-08-29T13:57:56.390Z,23.60
2022-08-29T14:00:32.190Z,23.70
2022-08-29T14:03:05.430Z,23.50
2022-08-29T14:05:35.296Z,23.30
2022-08-29T14:08:04.414Z,23.50
2022-08-29T14:10:32.475Z,23.50
2022-08-29T14:13:00.623Z,23.90
2022-08-29T14:15:30.071Z,23.90
2022-08-29T14:17:59.104Z,24.20
2022-08-29T14:20:27.333Z,24.10
2022-08-29T14:22:55.631Z,24.00
2022-08-29T14:25:23.739Z,23.90
2022-08-29T14:27:53.615Z,24.00
2022-08-29T14:30:23.666Z,23.90
2022-08-29T14:32:53.256Z,24.00
2022-08-29T14:35:26.451Z,24.10
2022-08-29T14:38:01.475Z,24.20
2022-08-29T14:40:30.719Z,24.20
2022-08-29T14:42:59.277Z,24.30
2022-08-29T14:45:27.889Z,23.40
2022-08-29T14:47:57.911Z,23.40
2022-08-29T14:50:26.445Z,23.60
2022-08-29T14:52:54.987Z,23.80
2022-08-29T14:55:23.443Z,24.00
2022-08-29T14:57:51.677Z,23.80
2022-08-29T15:00:22.233Z,24.10
2022-08-29T15:02:50.769Z,24.00
2022-08-29T15:05:20.371Z,23.90
2022-08-29T15:07:48.695Z,24.00
2022-08-29T15:10:19.191Z,24.10
2022-08-29T15:12:47.495Z,24.00
2022-08-29T15:15:15.523Z,23.80
2022-08-29T15:17:44.387Z,23.50
2022-08-29T15:23:04.286Z,23.30
2022-08-29T15:25:32.557Z,23.30
2022-08-29T15:28:00.587Z,23.30
2022-08-29T15:30:28.734Z,23.20
2022-08-29T15:32:56.906Z,23.60
2022-08-29T15:35:25.123Z,23.80
2022-08-29T15:37:54.458Z,23.60
2022-08-29T15:40:24.591Z,23.80
2022-08-29T15:42:52.766Z,23.70
2022-08-29T15:45:22.633Z,23.60
2022-08-29T15:47:54.035Z,23.20
2022-08-29T15:50:23.875Z,23.20
2022-08-29T15:52:52.003Z,23.30
2022-08-29T15:55:20.135Z,23.20
2022-08-29T15:57:52.503Z,23.00
2022-08-29T16:00:30.788Z,23.30
2022-08-29T16:03:01.916Z,23.50
2022-08-29T16:05:30.723Z,23.40
2022-08-29T16:07:59.302Z,23.10
2022-08-29T16:10:27.468Z,23.10
2022-08-29T16:12:56.818Z,23.00
2022-08-29T16:15:25.141Z,22.90
2022-08-29T16:17:56.368Z,22.90
2022-08-29T16:20:24.478Z,22.90
2022-08-29T16:22:52.588Z,22.80
2022-08-29T16:25:21.418Z,22.70
2022-08-29T16:27:50.446Z,22.80
2022-08-29T16:30:20.497Z,22.70
2022-08-29T16:32:50.107Z,22.70
2022-08-29T16:35:20.197Z,22.50
2022-08-29T16:37:59.664Z,22.50
2022-08-29T16:40:32.335Z,22.50
2022-08-29T16:43:02.675Z,22.50
2022-08-29T16:45:33.053Z,22.40
2022-08-29T16:48:01.425Z,22.40
2022-08-29T16:50:33.685Z,22.40
2022-08-29T16:53:15.711Z,22.30
2022-08-29T16:55:43.881Z,22.30
2022-08-29T16:58:29.612Z,22.30
2022-08-29T17:01:00.254Z,22.10
2022-08-29T17:03:28.359Z,22.10
2022-08-29T17:05:56.669Z,22.00
2022-08-29T17:08:23.816Z,22.00
2022-08-29T17:10:51.274Z,22.00
2022-08-29T17:13:18.330Z,21.90
2022-08-29T17:15:45.346Z,21.90
2022-08-29T17:18:15.462Z,21.80
2022-08-29T17:20:46.241Z,21.70
2022-08-29T17:23:15.832Z,21.70
2022-08-29T17:25:44.126Z,21.70
2022-08-29T17:28:19.433Z,21.40
2022-08-29T17:30:48.941Z,21.30
2022-08-29T17:33:19.519Z,21.30
2022-08-29T17:35:48.274Z,21.20
2022-08-29T17:38:16.530Z,21.20
2022-08-29T17:40:45.030Z,21.10
2022-08-29T17:43:14.046Z,21.10
2022-08-29T17:45:42.244Z,21.10
2022-08-29T17:48:10.292Z,21.00
2022-08-29T17:50:39.820Z,21.00
2022-08-29T17:53:08.290Z,20.80
2022-08-29T17:55:36.623Z,20.80
2022-08-29T17:58:04.765Z,20.60
2022-08-29T18:00:33.322Z,20.80
2022-08-29T18:03:01.487Z,20.70
2022-08-29T18:05:29.646Z,20.60
2022-08-29T18:07:59.164Z,20.70
2022-08-29T18:10:27.777Z,20.70
2022-08-29T18:12:55.810Z,20.60
2022-08-29T18:15:24.294Z,20.40
2022-08-29T18:17:53.913Z,20.40
2022-08-29T18:20:23.262Z,20.20
2022-08-29T18:22:51.350Z,20.30
2022-08-29T18:25:22.623Z,20.10
2022-08-29T18:27:51.599Z,20.00
2022-08-29T18:30:23.135Z,20.10
2022-08-29T18:32:51.236Z,20.00
2022-08-29T18:35:19.810Z,20.10
2022-08-29T18:37:47.953Z,20.00
2022-08-29T18:40:16.057Z,19.80
2022-08-29T18:42:45.548Z,19.70
2022-08-29T18:45:14.100Z,19.50
2022-08-29T18:47:42.303Z,19.50
2022-08-29T18:50:28.948Z,19.40
2022-08-29T18:52:57.358Z,19.40
2022-08-29T18:55:25.877Z,19.40
2022-08-29T18:57:56.570Z,19.30
2022-08-29T19:00:25.597Z,19.30
2022-08-29T19:02:54.167Z,19.20
2022-08-29T19:05:24.455Z,19.20
2022-08-29T19:07:52.965Z,19.40
2022-08-29T19:10:26.077Z,19.20
2022-08-29T19:12:56.140Z,19.20
2022-08-29T19:15:26.363Z,19.10
2022-08-29T19:17:55.039Z,19.00
2022-08-29T19:20:44.080Z,19.00
2022-08-29T19:23:12.644Z,19.00
2022-08-29T19:25:41.063Z,18.90
2022-08-29T19:28:11.604Z,18.80
2022-08-29T19:30:39.944Z,18.90
2022-08-29T19:33:08.982Z,19.10
2022-08-29T19:35:38.548Z,19.10
2022-08-29T19:38:07.869Z,19.00
2022-08-29T19:40:39.279Z,19.00
2022-08-29T19:43:13.626Z,18.90
2022-08-29T19:45:44.465Z,18.90
2022-08-29T19:48:15.197Z,18.90
2022-08-29T19:50:47.866Z,18.90
2022-08-29T19:53:26.488Z,19.10
2022-08-29T19:55:56.152Z,19.10
2022-08-29T19:58:31.483Z,19.80
2022-08-29T20:01:02.705Z,19.60
2022-08-29T20:03:31.695Z,19.50
2022-08-29T20:06:00.301Z,19.30
2022-08-29T20:08:31.231Z,19.40
2022-08-29T20:10:59.783Z,19.30
2022-08-29T20:13:32.863Z,19.30
2022-08-29T20:16:12.096Z,19.20
2022-08-29T20:18:41.484Z,19.00
2022-08-29T20:21:09.637Z,19.10
2022-08-29T20:23:43.573Z,18.90
2022-08-29T20:26:18.716Z,19.00
2022-08-29T20:28:47.296Z,19.20
2022-08-29T20:31:16.863Z,19.00
2022-08-29T20:33:46.417Z,19.20
2022-08-29T20:36:34.158Z,19.00
2022-08-29T20:39:09.168Z,18.80
2022-08-29T20:41:37.329Z,18.70
2022-08-29T20:44:07.903Z,18.70
2022-08-29T20:46:41.374Z,18.70
2022-08-29T20:49:10.204Z,18.80
2022-08-29T20:51:39.055Z,18.70
2022-08-29T20:54:10.129Z,18.60
2022-08-29T20:56:38.354Z,18.60
2022-08-29T20:59:07.176Z,18.40
2022-08-29T21:01:36.498Z,18.40
2022-08-29T21:04:25.963Z,18.40
2022-08-29T21:06:55.615Z,18.20
2022-08-29T21:09:23.714Z,18.10
2022-08-29T21:11:52.749Z,18.10
2022-08-29T21:14:22.522Z,18.10
2022-08-29T21:16:51.326Z,18.00
2022-08-29T21:19:21.265Z,17.80
2022-08-29T21:21:51.207Z,17.70
2022-08-29T21:24:20.449Z,17.80
2022-08-29T21:26:49.923Z,17.90
2022-08-29T21:29:19.535Z,17.90
2022-08-29T21:31:48.178Z,17.90
2022-08-29T21:34:17.142Z,17.90
2022-08-29T21:36:49.888Z,17.90
2022-08-29T21:39:27.978Z,17.80
2022-08-29T21:41:56.587Z,18.00
2022-08-29T21:44:24.858Z,17.70
2022-08-29T21:46:53.966Z,18.50
2022-08-29T21:49:23.067Z,18.30
2022-08-29T21:51:52.494Z,18.60
2022-08-29T21:54:21.102Z,18.60
2022-08-29T21:56:49.392Z,18.40
2022-08-29T21:59:19.218Z,18.40
2022-08-29T22:01:54.667Z,18.40
2022-08-29T22:04:28.063Z,18.10
2022-08-29T22:06:59.897Z,18.20
2022-08-29T22:09:28.744Z,18.40
2022-08-29T22:11:57.170Z,18.60
2022-08-29T22:14:45.817Z,18.30
2022-08-29T22:17:13.389Z,18.30
2022-08-29T22:19:41.844Z,18.10
2022-08-29T22:22:11.872Z,18.10
2022-08-29T22:24:39.961Z,17.90
2022-08-29T22:27:08.094Z,18.00
2022-08-29T22:29:37.160Z,18.10
2022-08-29T22:32:05.574Z,18.10
2022-08-29T22:34:33.598Z,17.80
2022-08-29T22:37:01.753Z,18.00
2022-08-29T22:39:31.150Z,18.10
2022-08-29T22:41:59.236Z,18.00
2022-08-29T22:47:15.494Z,17.90
2022-08-29T22:49:43.576Z,18.20
2022-08-29T22:52:11.962Z,18.10
2022-08-29T22:54:41.493Z,18.20
2022-08-29T22:57:13.000Z,18.20
2022-08-29T22:59:42.608Z,18.10
2022-08-29T23:02:14.718Z,18.20
2022-08-29T23:04:43.954Z,17.70
2022-08-29T23:07:14.131Z,17.90
2022-08-29T23:09:45.409Z,17.90
2022-08-29T23:12:14.933Z,17.70
2022-08-29T23:14:46.597Z,17.80
2022-08-29T23:17:16.253Z,17.70
2022-08-29T23:19:44.545Z,17.90
2022-08-29T23:22:14.480Z,17.80
2022-08-29T23:24:49.786Z,17.80
2022-08-29T23:27:27.329Z,17.90
2022-08-29T23:29:55.452Z,17.80
2022-08-29T23:32:23.552Z,17.90
2022-08-29T23:34:51.639Z,17.90
2022-08-29T23:37:19.773Z,17.70
2022-08-29T23:39:49.103Z,18.00
2022-08-29T23:42:17.416Z,17.60
2022-08-29T23:44:45.815Z,17.80
2022-08-29T23:47:17.405Z,17.80
2022-08-29T23:49:45.595Z,17.70
2022-08-29T23:52:14.178Z,17.80
2022-08-29T23:54:42.229Z,17.60
2022-08-29T23:57:11.770Z,17.70
2022-08-29T23:59:57.265Z,17.80
